Time;durP1;ratioP1;P1;durP2;ratioP2;P2;SDS_P1;SDS_P2;PMS_P1;PMS_P2;Temp;Humidity;BMP_temperature;BMP_pressure;BME280_temperature;BME280_humidity;BME280_pressure;Samples;Min_cycle;Max_cycle;Signal;HPM_P1;HPM_P2
2023/01/01 00:02:16;;;;;;;;;;;25.60;72.40;;;;;;6245088;22;19911;-74
2023/01/01 00:04:43;;;;;;;;;;;25.60;73.50;;;;;;6245198;22;20278;-73
2023/01/01 00:07:09;;;;;;;;;;;25.60;73.00;;;;;;6246140;22;20231;-73
2023/01/01 00:12:20;;;;;;;;;;;25.60;72.30;;;;;;6246651;22;19915;-72
2023/01/01 00:14:47;;;;;;;;;;;25.70;74.00;;;;;;6247113;22;19911;-73
2023/01/01 00:17:14;;;;;;;;;;;25.80;74.10;;;;;;6246758;22;19904;-73
2023/01/01 00:19:40;;;;;;;;;;;25.90;74.30;;;;;;6246859;22;19904;-73
2023/01/01 00:22:07;;;;;;;;;;;25.90;74.00;;;;;;6246771;22;19903;-73
2023/01/01 00:24:33;;;;;;;;;;;25.90;74.50;;;;;;6247019;22;19904;-73
2023/01/01 00:27:00;;;;;;;;;;;25.90;73.20;;;;;;6246980;22;19903;-73
2023/01/01 00:29:27;;;;;;;;;;;25.80;73.10;;;;;;6246472;22;19946;-73
2023/01/01 00:31:53;;;;;;;;;;;25.80;74.80;;;;;;6246343;22;19957;-73
2023/01/01 00:34:20;;;;;;;;;;;25.80;75.50;;;;;;6246623;22;19958;-73
2023/01/01 00:36:46;;;;;;;;;;;25.60;73.40;;;;;;6246877;22;19919;-73
2023/01/01 00:39:13;;;;;;;;;;;25.70;73.10;;;;;;6246508;22;19947;-73
2023/01/01 00:41:40;;;;;;;;;;;25.70;74.50;;;;;;6246858;22;19904;-73
2023/01/01 00:44:06;;;;;;;;;;;25.70;74.90;;;;;;6246617;22;19936;-73
2023/01/01 00:46:33;;;;;;;;;;;25.70;74.40;;;;;;6247057;22;19903;-73
2023/01/01 00:48:59;;;;;;;;;;;25.80;73.60;;;;;;6246562;22;19926;-73
2023/01/01 00:51:26;;;;;;;;;;;25.80;73.10;;;;;;6246254;22;19915;-73
2023/01/01 00:53:53;;;;;;;;;;;25.80;72.60;;;;;;6246823;22;20030;-73
2023/01/01 00:56:19;;;;;;;;;;;25.80;72.70;;;;;;6246617;22;19907;-73
2023/01/01 00:58:46;;;;;;;;;;;25.80;71.60;;;;;;6246538;22;19908;-73
2023/01/01 01:01:12;;;;;;;;;;;25.80;72.90;;;;;;6246068;22;19903;-73
2023/01/01 01:03:39;;;;;;;;;;;25.80;71.70;;;;;;6246882;22;20375;-74
2023/01/01 01:06:07;;;;;;;;;;;25.80;71.50;;;;;;6246566;22;19986;-73
2023/01/01 01:08:34;;;;;;;;;;;25.80;71.50;;;;;;6246130;22;19904;-73
2023/01/01 01:11:08;;;;;;;;;;;25.80;71.50;;;;;;6246302;22;20327;-73
2023/01/01 01:13:34;;;;;;;;;;;25.80;71.40;;;;;;6244869;23;19908;-73
2023/01/01 01:16:01;;;;;;;;;;;25.80;71.30;;;;;;6246830;22;19919;-74
2023/01/01 01:18:28;;;;;;;;;;;25.80;71.60;;;;;;6246589;22;19911;-74
2023/01/01 01:20:55;;;;;;;;;;;25.90;71.80;;;;;;6246453;22;19954;-74
2023/01/01 01:23:21;;;;;;;;;;;25.90;71.50;;;;;;6246000;22;19904;-74
2023/01/01 01:25:48;;;;;;;;;;;25.80;70.70;;;;;;6244900;23;19903;-74
2023/01/01 01:28:14;;;;;;;;;;;25.80;72.40;;;;;;6246393;22;20319;-74
2023/01/01 01:30:41;;;;;;;;;;;25.90;72.00;;;;;;6246460;22;19911;-72
2023/01/01 01:33:08;;;;;;;;;;;25.80;70.80;;;;;;6246496;22;20289;-74
2023/01/01 01:35:34;;;;;;;;;;;25.80;70.50;;;;;;6246360;22;19904;-74
2023/01/01 01:38:01;;;;;;;;;;;25.80;70.20;;;;;;6246072;22;20350;-74
2023/01/01 01:40:28;;;;;;;;;;;25.80;69.90;;;;;;6246415;22;19942;-74
2023/01/01 01:42:54;;;;;;;;;;;25.80;70.70;;;;;;6245783;22;20246;-74
2023/01/01 01:45:21;;;;;;;;;;;25.80;70.70;;;;;;6245897;22;19900;-72
2023/01/01 01:47:51;;;;;;;;;;;25.80;70.30;;;;;;6246098;22;19911;-72
2023/01/01 01:50:36;;;;;;;;;;;25.80;70.70;;;;;;6246118;22;19911;-72
2023/01/01 01:53:03;;;;;;;;;;;25.80;70.10;;;;;;6244729;22;19911;-72
2023/01/01 01:55:30;;;;;;;;;;;25.70;69.60;;;;;;6246034;22;19908;-71
2023/01/01 01:57:56;;;;;;;;;;;25.70;69.80;;;;;;6246317;23;20350;-72
2023/01/01 02:00:23;;;;;;;;;;;25.70;69.80;;;;;;6246053;22;19908;-71
2023/01/01 02:02:57;;;;;;;;;;;25.80;71.40;;;;;;6246103;22;19904;-72
2023/01/01 02:05:24;;;;;;;;;;;25.80;72.00;;;;;;6246020;22;19908;-72
2023/01/01 02:07:51;;;;;;;;;;;25.80;71.30;;;;;;6245822;22;19911;-72
2023/01/01 02:10:17;;;;;;;;;;;25.80;71.70;;;;;;6243889;23;19934;-72
2023/01/01 02:12:44;;;;;;;;;;;25.70;71.40;;;;;;6246112;22;19990;-72
2023/01/01 02:15:11;;;;;;;;;;;25.60;70.80;;;;;;6246250;22;19934;-72
2023/01/01 02:17:56;;;;;;;;;;;25.60;70.90;;;;;;6244260;23;20312;-72
2023/01/01 02:20:25;;;;;;;;;;;25.70;71.90;;;;;;6245484;23;20274;-73
2023/01/01 02:23:10;;;;;;;;;;;25.80;71.70;;;;;;6244080;22;19911;-72
2023/01/01 02:25:54;;;;;;;;;;;25.70;71.40;;;;;;6245948;23;19986;-72
2023/01/01 02:28:59;;;;;;;;;;;25.60;71.10;;;;;;6245884;23;19908;-72
2023/01/01 02:31:32;;;;;;;;;;;25.40;71.00;;;;;;6123108;23;19928;-72
2023/01/01 02:33:59;;;;;;;;;;;25.30;71.00;;;;;;6098901;23;20244;-72
2023/01/01 02:36:26;;;;;;;;;;;25.20;71.00;;;;;;6172834;23;19979;-72
2023/01/01 02:38:54;;;;;;;;;;;25.20;70.10;;;;;;6243715;23;20335;-72
2023/01/01 02:41:30;;;;;;;;;;;25.10;71.00;;;;;;6244024;22;19911;-72
2023/01/01 02:43:57;;;;;;;;;;;25.20;69.60;;;;;;6245554;22;20006;-72
2023/01/01 02:46:24;;;;;;;;;;;25.20;70.30;;;;;;6245357;22;19957;-72
2023/01/01 02:48:51;;;;;;;;;;;25.30;71.20;;;;;;6243802;23;19910;-72
2023/01/01 02:51:20;;;;;;;;;;;25.30;69.80;;;;;;6245169;22;19922;-72
2023/01/01 02:54:07;;;;;;;;;;;25.40;70.20;;;;;;6245588;22;19907;-72
2023/01/01 02:56:36;;;;;;;;;;;25.50;69.50;;;;;;6245015;23;19904;-72
2023/01/01 03:02:01;;;;;;;;;;;25.60;69.80;;;;;;6245344;22;19961;-72
2023/01/01 03:04:28;;;;;;;;;;;25.70;70.70;;;;;;6244019;23;19977;-72
2023/01/01 03:07:06;;;;;;;;;;;25.60;70.30;;;;;;6245469;22;19908;-72
2023/01/01 03:09:35;;;;;;;;;;;25.50;70.40;;;;;;6245437;22;20326;-72
2023/01/01 03:12:05;;;;;;;;;;;25.50;69.80;;;;;;6245094;22;19954;-72
2023/01/01 03:14:55;;;;;;;;;;;25.50;69.80;;;;;;6243988;23;19903;-72
2023/01/01 03:17:27;;;;;;;;;;;25.40;70.00;;;;;;6245053;22;20243;-72
2023/01/01 03:19:55;;;;;;;;;;;25.40;71.20;;;;;;6245695;22;19914;-73
2023/01/01 03:22:22;;;;;;;;;;;25.50;71.60;;;;;;6243550;22;19908;-72
2023/01/01 03:24:53;;;;;;;;;;;25.70;71.50;;;;;;6245402;22;20364;-72
2023/01/01 03:27:38;;;;;;;;;;;25.70;71.00;;;;;;6243751;23;19904;-72
2023/01/01 03:30:07;;;;;;;;;;;25.80;70.40;;;;;;6245306;22;19907;-72
2023/01/01 03:35:19;;;;;;;;;;;25.90;71.40;;;;;;6244165;23;19954;-72
2023/01/01 03:37:46;;;;;;;;;;;26.00;71.70;;;;;;6243711;23;19983;-72
2023/01/01 03:40:13;;;;;;;;;;;26.00;71.20;;;;;;6243629;23;19907;-72
2023/01/01 03:42:43;;;;;;;;;;;25.80;71.80;;;;;;6245328;22;20245;-72
2023/01/01 03:45:11;;;;;;;;;;;25.80;71.40;;;;;;6245841;23;19908;-72
2023/01/01 03:47:38;;;;;;;;;;;25.80;72.00;;;;;;6246077;23;19912;-73
2023/01/01 03:50:05;;;;;;;;;;;25.80;72.70;;;;;;6247046;22;19916;-72
2023/01/01 03:52:49;;;;;;;;;;;25.80;72.00;;;;;;6245710;22;19957;-72
2023/01/01 03:55:32;;;;;;;;;;;25.70;72.40;;;;;;6247178;23;19907;-72
2023/01/01 03:58:02;;;;;;;;;;;25.70;73.00;;;;;;6245857;23;20276;-71
2023/01/01 04:00:33;;;;;;;;;;;25.70;71.60;;;;;;6247118;22;19907;-72
2023/01/01 04:03:38;;;;;;;;;;;25.60;71.30;;;;;;6245612;22;19986;-72
2023/01/01 04:06:04;;;;;;;;;;;25.60;71.60;;;;;;6124751;23;19955;-72
2023/01/01 04:08:32;;;;;;;;;;;25.60;71.80;;;;;;6100235;23;19905;-72
2023/01/01 04:10:58;;;;;;;;;;;25.60;70.80;;;;;;6183892;22;19911;-72
2023/01/01 04:13:25;;;;;;;;;;;25.60;72.30;;;;;;6245685;23;19915;-72
2023/01/01 04:15:52;;;;;;;;;;;25.50;72.10;;;;;;6246890;22;19942;-72
2023/01/01 04:18:18;;;;;;;;;;;25.50;72.90;;;;;;6247170;22;20275;-72
2023/01/01 04:20:45;;;;;;;;;;;25.50;72.90;;;;;;6246979;22;19979;-72
2023/01/01 04:23:11;;;;;;;;;;;25.50;72.00;;;;;;6247002;22;20582;-72
2023/01/01 04:25:38;;;;;;;;;;;25.50;72.80;;;;;;6247199;22;19903;-72
2023/01/01 04:28:05;;;;;;;;;;;25.50;72.80;;;;;;6246719;22;19904;-72
2023/01/01 04:30:31;;;;;;;;;;;25.50;72.40;;;;;;6246588;23;20246;-72
2023/01/01 04:32:58;;;;;;;;;;;25.50;72.30;;;;;;6246537;22;19907;-72
2023/01/01 04:35:24;;;;;;;;;;;25.40;72.20;;;;;;6246835;22;19910;-73
2023/01/01 04:37:51;;;;;;;;;;;25.40;71.80;;;;;;6246752;22;19907;-72
2023/01/01 04:40:18;;;;;;;;;;;25.40;71.50;;;;;;6247170;22;19987;-73
2023/01/01 04:42:44;;;;;;;;;;;25.50;71.50;;;;;;6247034;22;20238;-73
2023/01/01 04:45:13;;;;;;;;;;;25.50;72.50;;;;;;6246997;22;19979;-73
2023/01/01 04:47:40;;;;;;;;;;;25.50;71.90;;;;;;6246534;22;19927;-73
2023/01/01 04:50:07;;;;;;;;;;;25.50;72.10;;;;;;6246520;22;19912;-72
2023/01/01 04:52:33;;;;;;;;;;;25.60;71.20;;;;;;6246432;22;19903;-73
2023/01/01 04:55:00;;;;;;;;;;;25.50;71.80;;;;;;6246598;22;19911;-73
2023/01/01 04:57:28;;;;;;;;;;;25.50;71.60;;;;;;6246767;22;20314;-73
2023/01/01 04:59:55;;;;;;;;;;;25.50;71.60;;;;;;6246480;22;19957;-73
2023/01/01 05:02:21;;;;;;;;;;;25.50;71.40;;;;;;6246848;22;20281;-73
2023/01/01 05:04:48;;;;;;;;;;;25.50;70.60;;;;;;6247050;22;19903;-73
2023/01/01 05:07:14;;;;;;;;;;;25.50;71.50;;;;;;6246418;22;19927;-73
2023/01/01 05:09:41;;;;;;;;;;;25.50;71.20;;;;;;6246377;22;20184;-73
2023/01/01 05:12:08;;;;;;;;;;;25.60;71.10;;;;;;6246702;22;19915;-73
2023/01/01 05:14:34;;;;;;;;;;;25.50;70.70;;;;;;6246423;22;20349;-73
2023/01/01 05:17:01;;;;;;;;;;;25.50;71.10;;;;;;6246710;22;19904;-73
2023/01/01 05:19:27;;;;;;;;;;;25.50;70.70;;;;;;6246775;22;19904;-73
2023/01/01 05:21:54;;;;;;;;;;;25.50;71.10;;;;;;6246757;22;20246;-73
2023/01/01 05:24:21;;;;;;;;;;;25.50;71.40;;;;;;6246516;22;19903;-73
2023/01/01 05:26:47;;;;;;;;;;;25.50;71.40;;;;;;6246451;22;19997;-73
2023/01/01 05:29:14;;;;;;;;;;;25.40;70.90;;;;;;6246041;22;19910;-73
2023/01/01 05:31:41;;;;;;;;;;;25.50;71.60;;;;;;6246222;22;20235;-72
2023/01/01 05:34:07;;;;;;;;;;;25.40;71.00;;;;;;6246420;22;19934;-72
2023/01/01 05:36:37;;;;;;;;;;;25.40;71.90;;;;;;6246115;22;19908;-73
2023/01/01 05:39:04;;;;;;;;;;;25.40;71.90;;;;;;6245975;22;19915;-73
2023/01/01 05:41:35;;;;;;;;;;;25.40;71.70;;;;;;6244691;22;19904;-73
2023/01/01 05:44:02;;;;;;;;;;;25.30;71.60;;;;;;6244425;23;19908;-73
2023/01/01 05:46:28;;;;;;;;;;;25.30;71.60;;;;;;6245791;22;19911;-73
2023/01/01 05:48:55;;;;;;;;;;;25.30;72.20;;;;;;6246109;22;19904;-73
2023/01/01 05:51:22;;;;;;;;;;;25.20;71.90;;;;;;6245959;22;19942;-73
2023/01/01 05:53:49;;;;;;;;;;;25.20;71.50;;;;;;6246234;22;20169;-72
2023/01/01 05:56:16;;;;;;;;;;;25.20;71.60;;;;;;6245966;22;19907;-73
2023/01/01 05:58:42;;;;;;;;;;;25.10;72.10;;;;;;6246378;22;20258;-73
2023/01/01 06:01:13;;;;;;;;;;;25.10;72.00;;;;;;6246110;22;19907;-72
2023/01/01 06:03:40;;;;;;;;;;;25.10;72.60;;;;;;6245550;22;20239;-73
2023/01/01 06:06:07;;;;;;;;;;;25.10;72.50;;;;;;6246219;22;19904;-73
2023/01/01 06:08:34;;;;;;;;;;;25.10;72.00;;;;;;6245696;22;19922;-73
2023/01/01 06:11:01;;;;;;;;;;;25.10;72.30;;;;;;6245528;22;19911;-73
2023/01/01 06:13:27;;;;;;;;;;;25.10;71.70;;;;;;6246111;22;19910;-73
2023/01/01 06:15:55;;;;;;;;;;;25.10;71.70;;;;;;6245952;22;19911;-73
2023/01/01 06:18:22;;;;;;;;;;;25.10;71.50;;;;;;6246063;22;19983;-73
2023/01/01 06:20:48;;;;;;;;;;;25.20;72.00;;;;;;6245696;22;19927;-72
2023/01/01 06:23:15;;;;;;;;;;;25.20;71.60;;;;;;6245726;22;19981;-73
2023/01/01 06:25:41;;;;;;;;;;;25.20;71.50;;;;;;6245722;22;19930;-73
2023/01/01 06:28:08;;;;;;;;;;;25.10;71.60;;;;;;6244284;23;19986;-73
2023/01/01 06:30:35;;;;;;;;;;;25.20;71.90;;;;;;6245903;22;19915;-73
2023/01/01 06:33:02;;;;;;;;;;;25.10;72.50;;;;;;6245620;22;20291;-73
2023/01/01 06:35:28;;;;;;;;;;;25.10;72.00;;;;;;6245650;22;20334;-73
2023/01/01 06:37:55;;;;;;;;;;;25.10;71.40;;;;;;6245691;22;19908;-73
2023/01/01 06:40:22;;;;;;;;;;;25.10;70.90;;;;;;6245593;22;20239;-72
2023/01/01 06:42:49;;;;;;;;;;;25.00;70.90;;;;;;6245364;22;19910;-73
2023/01/01 06:45:16;;;;;;;;;;;25.00;71.30;;;;;;6245461;22;19915;-72
2023/01/01 06:47:42;;;;;;;;;;;25.00;71.40;;;;;;6245533;22;20277;-73
2023/01/01 06:50:09;;;;;;;;;;;25.00;71.00;;;;;;6245532;23;19958;-73
2023/01/01 06:52:36;;;;;;;;;;;25.00;71.50;;;;;;6245552;22;19915;-73
2023/01/01 06:55:02;;;;;;;;;;;25.00;71.50;;;;;;6245457;22;19907;-73
2023/01/01 06:57:29;;;;;;;;;;;25.00;72.00;;;;;;6245959;22;19914;-73
2023/01/01 06:59:55;;;;;;;;;;;24.90;72.40;;;;;;6245299;22;19965;-73
2023/01/01 07:02:22;;;;;;;;;;;24.90;72.80;;;;;;6244008;22;19907;-73
2023/01/01 07:04:49;;;;;;;;;;;24.90;71.90;;;;;;6245693;22;19951;-73
2023/01/01 07:07:15;;;;;;;;;;;25.00;73.10;;;;;;6245441;22;19903;-73
2023/01/01 07:09:42;;;;;;;;;;;24.90;74.10;;;;;;6245391;22;19907;-73
2023/01/01 07:12:08;;;;;;;;;;;24.90;74.50;;;;;;6245157;22;19908;-73
2023/01/01 07:14:35;;;;;;;;;;;24.90;74.50;;;;;;6245249;22;20243;-72
2023/01/01 07:17:02;;;;;;;;;;;24.80;74.80;;;;;;6245291;22;19970;-72
2023/01/01 07:19:28;;;;;;;;;;;24.80;75.00;;;;;;6245510;22;19911;-73
2023/01/01 07:21:55;;;;;;;;;;;24.80;75.30;;;;;;6245108;22;19904;-73
2023/01/01 07:24:22;;;;;;;;;;;24.70;75.40;;;;;;6245041;22;19908;-73
2023/01/01 07:26:48;;;;;;;;;;;24.70;75.40;;;;;;6245295;22;20315;-73
2023/01/01 07:29:15;;;;;;;;;;;24.60;75.40;;;;;;6245038;22;19954;-73
2023/01/01 07:31:42;;;;;;;;;;;24.50;74.90;;;;;;6245011;22;19911;-73
2023/01/01 07:34:15;;;;;;;;;;;24.50;75.30;;;;;;6245246;22;20272;-73
2023/01/01 07:36:42;;;;;;;;;;;24.60;75.70;;;;;;6245088;22;19911;-73
2023/01/01 07:39:08;;;;;;;;;;;24.50;74.40;;;;;;6244896;22;19938;-73
2023/01/01 07:41:35;;;;;;;;;;;24.40;74.60;;;;;;6245147;22;19903;-73
2023/01/01 07:44:02;;;;;;;;;;;24.40;74.50;;;;;;6245395;22;19998;-73
2023/01/01 07:46:28;;;;;;;;;;;24.40;74.30;;;;;;6244991;22;19911;-73
2023/01/01 07:48:55;;;;;;;;;;;24.30;74.40;;;;;;6244995;22;19908;-74
2023/01/01 07:51:22;;;;;;;;;;;24.40;74.60;;;;;;6244670;22;19991;-73
2023/01/01 07:53:49;;;;;;;;;;;24.40;74.90;;;;;;6244850;22;19908;-73
2023/01/01 07:56:15;;;;;;;;;;;24.40;75.10;;;;;;6245456;22;19915;-73
2023/01/01 07:58:42;;;;;;;;;;;24.40;75.40;;;;;;6245397;22;20243;-73
2023/01/01 08:01:10;;;;;;;;;;;24.40;75.20;;;;;;6244873;22;19903;-73
2023/01/01 08:03:36;;;;;;;;;;;24.30;75.00;;;;;;6244890;22;19957;-74
2023/01/01 08:06:09;;;;;;;;;;;24.40;75.40;;;;;;6245211;22;19911;-73
2023/01/01 08:08:36;;;;;;;;;;;24.30;75.10;;;;;;6245064;22;19995;-73
2023/01/01 08:11:03;;;;;;;;;;;24.30;75.10;;;;;;6245235;22;19912;-73
2023/01/01 08:13:29;;;;;;;;;;;24.30;75.60;;;;;;6245129;22;19907;-74
2023/01/01 08:15:57;;;;;;;;;;;24.20;75.60;;;;;;6245220;22;19916;-73
2023/01/01 08:18:23;;;;;;;;;;;24.20;75.60;;;;;;6245101;22;19919;-73
2023/01/01 08:20:50;;;;;;;;;;;24.20;75.60;;;;;;6245267;22;19911;-73
2023/01/01 08:23:17;;;;;;;;;;;24.20;75.60;;;;;;6245178;22;19908;-73
2023/01/01 08:25:43;;;;;;;;;;;24.20;75.40;;;;;;6245389;22;19942;-73
2023/01/01 08:28:10;;;;;;;;;;;24.10;75.50;;;;;;6245880;22;19986;-74
2023/01/01 08:30:36;;;;;;;;;;;24.10;75.70;;;;;;6246999;22;19918;-73
2023/01/01 08:33:03;;;;;;;;;;;24.10;75.20;;;;;;6247588;22;19904;-73
2023/01/01 08:35:29;;;;;;;;;;;24.00;75.40;;;;;;6247033;22;19904;-73
2023/01/01 08:37:56;;;;;;;;;;;24.00;75.50;;;;;;6245060;23;19915;-73
2023/01/01 08:40:23;;;;;;;;;;;24.00;75.70;;;;;;6246565;22;19904;-74
2023/01/01 08:42:49;;;;;;;;;;;24.00;75.60;;;;;;6246596;22;19910;-73
2023/01/01 08:45:16;;;;;;;;;;;23.90;75.70;;;;;;6246945;22;19907;-74
2023/01/01 08:47:42;;;;;;;;;;;23.90;75.80;;;;;;6247291;22;19911;-73
2023/01/01 08:50:09;;;;;;;;;;;23.90;76.10;;;;;;6246595;22;19923;-73
2023/01/01 08:52:36;;;;;;;;;;;23.90;76.40;;;;;;6246711;22;19986;-73
2023/01/01 08:55:02;;;;;;;;;;;23.90;76.40;;;;;;6246680;22;20315;-73
2023/01/01 08:57:30;;;;;;;;;;;23.90;76.60;;;;;;6246885;22;19914;-73
2023/01/01 08:59:57;;;;;;;;;;;23.80;76.30;;;;;;6246509;22;19903;-73
2023/01/01 09:02:23;;;;;;;;;;;23.80;76.30;;;;;;6246598;22;19908;-73
2023/01/01 09:04:50;;;;;;;;;;;23.80;76.20;;;;;;6246423;22;19904;-73
2023/01/01 09:07:16;;;;;;;;;;;23.80;76.30;;;;;;6246095;22;19946;-73
2023/01/01 09:09:43;;;;;;;;;;;23.70;76.40;;;;;;6246420;22;19911;-74
2023/01/01 09:12:10;;;;;;;;;;;23.70;76.60;;;;;;6246320;22;19914;-73
2023/01/01 09:14:36;;;;;;;;;;;23.80;76.60;;;;;;6245258;23;20239;-74
2023/01/01 09:17:03;;;;;;;;;;;23.70;77.10;;;;;;6246406;22;19914;-70
2023/01/01 09:19:30;;;;;;;;;;;23.70;77.40;;;;;;6246294;22;19942;-71
2023/01/01 09:21:56;;;;;;;;;;;23.70;77.50;;;;;;6246372;22;20250;-73
2023/01/01 09:24:23;;;;;;;;;;;23.60;77.70;;;;;;6246247;22;19926;-77
2023/01/01 09:26:50;;;;;;;;;;;23.60;77.40;;;;;;6246852;22;19904;-74
2023/01/01 09:29:19;;;;;;;;;;;23.60;77.70;;;;;;6246499;22;19908;-70
2023/01/01 09:31:46;;;;;;;;;;;23.60;77.30;;;;;;6245908;22;19919;-74
2023/01/01 09:34:13;;;;;;;;;;;23.60;77.50;;;;;;6246452;22;20230;-74
2023/01/01 09:36:40;;;;;;;;;;;23.60;77.60;;;;;;6246324;22;20282;-73
2023/01/01 09:39:06;;;;;;;;;;;23.50;77.70;;;;;;6245451;22;19941;-73
2023/01/01 09:41:51;;;;;;;;;;;23.50;77.80;;;;;;6246105;22;20334;-74
2023/01/01 09:44:21;;;;;;;;;;;23.50;77.70;;;;;;6246389;23;19986;-73
2023/01/01 09:46:48;;;;;;;;;;;23.50;77.60;;;;;;6244144;23;19935;-74
2023/01/01 09:49:40;;;;;;;;;;;23.50;77.70;;;;;;6246311;22;19904;-73
2023/01/01 09:52:08;;;;;;;;;;;23.50;78.00;;;;;;6240542;22;19919;-73
2023/01/01 09:54:40;;;;;;;;;;;23.50;77.60;;;;;;6245062;23;20310;-73
2023/01/01 09:57:09;;;;;;;;;;;23.50;77.70;;;;;;6245952;22;19904;-73
2023/01/01 09:59:35;;;;;;;;;;;23.60;77.30;;;;;;6244564;23;19904;-73
2023/01/01 10:02:20;;;;;;;;;;;23.50;77.50;;;;;;6245842;22;19907;-74
2023/01/01 10:04:53;;;;;;;;;;;23.50;77.50;;;;;;6245711;23;19903;-74
2023/01/01 10:07:34;;;;;;;;;;;23.50;77.60;;;;;;6245781;22;19934;-75
2023/01/01 10:10:04;;;;;;;;;;;23.50;77.40;;;;;;6244207;23;20283;-73
2023/01/01 10:12:36;;;;;;;;;;;23.40;77.60;;;;;;6245377;22;19965;-73
2023/01/01 10:15:23;;;;;;;;;;;23.50;77.60;;;;;;6245879;23;19926;-74
2023/01/01 10:17:59;;;;;;;;;;;23.40;77.30;;;;;;6245340;23;19979;-74
2023/01/01 10:20:25;;;;;;;;;;;23.40;77.50;;;;;;6244092;23;20415;-73
2023/01/01 10:22:53;;;;;;;;;;;23.40;77.10;;;;;;6245995;22;19903;-74
2023/01/01 10:25:29;;;;;;;;;;;23.40;77.30;;;;;;6245848;22;20061;-73
2023/01/01 10:28:00;;;;;;;;;;;23.50;77.20;;;;;;6245584;22;19962;-74
2023/01/01 10:30:27;;;;;;;;;;;23.40;77.40;;;;;;6244109;23;19911;-73
2023/01/01 10:32:54;;;;;;;;;;;23.30;77.60;;;;;;6245219;22;19935;-74
2023/01/01 10:35:21;;;;;;;;;;;23.30;77.60;;;;;;6244068;23;20262;-74
2023/01/01 10:37:51;;;;;;;;;;;23.30;77.70;;;;;;6245090;22;19923;-73
2023/01/01 10:40:18;;;;;;;;;;;23.30;78.00;;;;;;6243697;23;20281;-74
2023/01/01 10:42:48;;;;;;;;;;;23.30;77.90;;;;;;6245664;22;19950;-73
2023/01/01 10:45:16;;;;;;;;;;;23.30;78.10;;;;;;6245562;22;19904;-74
2023/01/01 10:48:01;;;;;;;;;;;23.40;77.40;;;;;;6245846;22;20299;-74
2023/01/01 10:50:47;;;;;;;;;;;23.30;77.50;;;;;;6245185;23;19911;-73
2023/01/01 10:53:21;;;;;;;;;;;23.30;77.60;;;;;;6245370;23;19904;-73
2023/01/01 10:55:48;;;;;;;;;;;23.30;77.90;;;;;;6245782;22;19982;-73
2023/01/01 10:58:27;;;;;;;;;;;23.30;78.10;;;;;;6244429;23;19903;-73
2023/01/01 11:00:57;;;;;;;;;;;23.30;78.20;;;;;;6245254;22;20323;-74
2023/01/01 11:03:24;;;;;;;;;;;23.30;78.30;;;;;;6244978;22;19953;-73
2023/01/01 11:05:59;;;;;;;;;;;23.30;78.10;;;;;;6245482;22;19919;-73
2023/01/01 11:08:26;;;;;;;;;;;23.30;78.10;;;;;;6245293;22;19914;-74
2023/01/01 11:10:59;;;;;;;;;;;23.30;78.50;;;;;;6243728;22;20242;-74
2023/01/01 11:13:27;;;;;;;;;;;23.30;78.60;;;;;;6245241;22;19949;-74
2023/01/01 11:15:53;;;;;;;;;;;23.30;78.60;;;;;;6243797;23;19942;-74
2023/01/01 11:18:21;;;;;;;;;;;23.30;78.70;;;;;;6245328;22;19903;-73
2023/01/01 11:20:52;;;;;;;;;;;23.20;78.70;;;;;;6243302;22;19912;-74
2023/01/01 11:23:18;;;;;;;;;;;23.30;78.80;;;;;;6243629;23;19911;-74
2023/01/01 11:26:01;;;;;;;;;;;23.20;78.90;;;;;;6245046;22;19910;-73
2023/01/01 11:28:30;;;;;;;;;;;23.20;79.10;;;;;;6245235;22;19903;-73
2023/01/01 11:31:01;;;;;;;;;;;23.20;79.30;;;;;;6245443;22;19955;-74
2023/01/01 11:33:27;;;;;;;;;;;23.20;79.10;;;;;;6243573;23;20216;-73
2023/01/01 11:35:54;;;;;;;;;;;23.20;78.90;;;;;;6245508;22;19910;-73
2023/01/01 11:38:21;;;;;;;;;;;23.20;79.00;;;;;;6245059;22;20001;-74
2023/01/01 11:40:51;;;;;;;;;;;23.10;79.20;;;;;;6243878;22;19903;-73
2023/01/01 11:43:24;;;;;;;;;;;23.10;79.30;;;;;;6245620;22;19931;-73
2023/01/01 11:45:51;;;;;;;;;;;23.10;79.50;;;;;;6245129;22;19903;-74
2023/01/01 11:48:18;;;;;;;;;;;23.10;79.20;;;;;;6244091;23;19957;-74
2023/01/01 11:50:52;;;;;;;;;;;23.10;79.30;;;;;;6245643;22;19995;-74
2023/01/01 11:53:24;;;;;;;;;;;23.10;79.20;;;;;;6245088;22;19904;-74
2023/01/01 11:56:00;;;;;;;;;;;23.20;79.40;;;;;;6245019;22;19907;-74
2023/01/01 11:58:35;;;;;;;;;;;23.10;79.50;;;;;;6244942;22;19954;-74
2023/01/01 12:01:04;;;;;;;;;;;23.10;79.40;;;;;;6244968;22;19931;-74
2023/01/01 12:03:53;;;;;;;;;;;23.10;79.70;;;;;;6245099;23;20350;-74
2023/01/01 12:06:20;;;;;;;;;;;23.10;79.50;;;;;;6231633;23;19941;-74
2023/01/01 12:08:58;;;;;;;;;;;23.10;79.60;;;;;;6247333;22;19903;-74
2023/01/01 12:11:39;;;;;;;;;;;23.10;79.30;;;;;;6246817;22;20418;-74
2023/01/01 12:14:35;;;;;;;;;;;23.00;79.40;;;;;;6245473;23;19915;-74
2023/01/01 12:17:02;;;;;;;;;;;23.00;79.40;;;;;;6221319;22;19907;-74
2023/01/01 12:19:46;;;;;;;;;;;23.00;79.10;;;;;;6247054;22;19910;-73
2023/01/01 12:22:16;;;;;;;;;;;23.00;79.30;;;;;;6247192;22;19903;-74
2023/01/01 12:24:43;;;;;;;;;;;23.00;78.80;;;;;;6246916;22;20383;-73
2023/01/01 12:27:30;;;;;;;;;;;23.00;78.90;;;;;;6246650;22;20394;-74
2023/01/01 12:30:02;;;;;;;;;;;23.00;78.40;;;;;;6185096;22;19915;-74
2023/01/01 12:32:45;;;;;;;;;;;23.00;78.50;;;;;;6246974;22;19904;-74
2023/01/01 12:35:21;;;;;;;;;;;23.00;78.40;;;;;;6245648;23;20250;-74
2023/01/01 12:38:01;;;;;;;;;;;23.00;78.50;;;;;;6247314;22;20374;-73
2023/01/01 12:40:57;;;;;;;;;;;23.00;78.50;;;;;;6245492;23;19946;-74
2023/01/01 12:43:43;;;;;;;;;;;22.90;78.60;;;;;;6139486;22;19913;-74
2023/01/01 12:46:12;;;;;;;;;;;22.90;78.70;;;;;;6245505;23;20500;-73
2023/01/01 12:48:39;;;;;;;;;;;22.90;78.60;;;;;;6246984;22;20002;-74
2023/01/01 12:51:25;;;;;;;;;;;22.90;78.40;;;;;;6246399;22;19919;-73
2023/01/01 12:54:10;;;;;;;;;;;22.90;78.50;;;;;;6245372;23;19907;-73
2023/01/01 12:56:43;;;;;;;;;;;22.90;78.20;;;;;;6246651;23;19929;-74
2023/01/01 12:59:21;;;;;;;;;;;22.90;78.30;;;;;;6246741;22;19904;-73
2023/01/01 13:01:47;;;;;;;;;;;22.90;77.90;;;;;;6245022;22;20241;-74
2023/01/01 13:04:17;;;;;;;;;;;22.90;78.00;;;;;;6246713;23;19961;-73
2023/01/01 13:06:51;;;;;;;;;;;22.80;78.20;;;;;;6246807;22;20006;-74
2023/01/01 13:09:24;;;;;;;;;;;22.80;77.70;;;;;;6245303;23;19910;-74
2023/01/01 13:12:01;;;;;;;;;;;22.80;77.70;;;;;;6244951;22;19912;-73
2023/01/01 13:14:27;;;;;;;;;;;22.80;77.90;;;;;;6246174;22;19904;-73
2023/01/01 13:16:54;;;;;;;;;;;22.80;77.80;;;;;;6246702;22;20170;-74
2023/01/01 13:19:24;;;;;;;;;;;22.80;77.70;;;;;;6246569;22;20235;-73
2023/01/01 13:21:50;;;;;;;;;;;22.70;77.80;;;;;;6246624;22;19904;-73
2023/01/01 13:24:21;;;;;;;;;;;22.70;77.80;;;;;;6246398;22;19973;-73
2023/01/01 13:26:48;;;;;;;;;;;22.60;77.80;;;;;;6246326;22;19930;-73
2023/01/01 13:29:15;;;;;;;;;;;22.70;77.90;;;;;;6246357;22;19910;-73
2023/01/01 13:31:42;;;;;;;;;;;22.70;77.80;;;;;;6246139;22;19912;-74
2023/01/01 13:34:26;;;;;;;;;;;22.60;77.90;;;;;;6246251;22;19904;-73
2023/01/01 13:37:13;;;;;;;;;;;22.60;78.00;;;;;;6246581;23;19904;-73
2023/01/01 13:39:55;;;;;;;;;;;22.60;78.10;;;;;;6245905;22;19915;-74
2023/01/01 13:42:40;;;;;;;;;;;22.60;78.10;;;;;;6246053;22;20242;-73
2023/01/01 13:45:16;;;;;;;;;;;22.60;78.30;;;;;;6245898;23;19908;-73
2023/01/01 13:48:03;;;;;;;;;;;22.60;78.30;;;;;;6244561;23;19904;-74
2023/01/01 13:50:45;;;;;;;;;;;22.60;78.50;;;;;;6245643;22;19914;-74
2023/01/01 13:53:32;;;;;;;;;;;22.60;78.50;;;;;;6246063;22;19903;-74
2023/01/01 13:55:59;;;;;;;;;;;22.60;78.60;;;;;;6225166;23;20327;-74
2023/01/01 13:58:34;;;;;;;;;;;22.60;78.90;;;;;;6244489;23;19950;-74
2023/01/01 14:01:13;;;;;;;;;;;22.60;78.90;;;;;;6245999;22;19904;-74
2023/01/01 14:03:41;;;;;;;;;;;22.60;79.00;;;;;;6244330;23;20250;-73
2023/01/01 14:06:26;;;;;;;;;;;22.70;79.20;;;;;;6244483;23;19904;-74
2023/01/01 14:09:02;;;;;;;;;;;22.60;79.40;;;;;;6245901;22;19904;-73
2023/01/01 14:11:28;;;;;;;;;;;22.60;79.70;;;;;;6245597;22;19946;-73
2023/01/01 14:13:55;;;;;;;;;;;22.60;79.80;;;;;;6246121;22;19910;-74
2023/01/01 14:16:22;;;;;;;;;;;22.60;80.10;;;;;;6245994;22;20022;-73
2023/01/01 14:18:49;;;;;;;;;;;22.60;80.30;;;;;;6245925;22;19903;-74
2023/01/01 14:21:19;;;;;;;;;;;22.60;80.30;;;;;;6244120;22;19907;-73
2023/01/01 14:23:48;;;;;;;;;;;22.60;80.20;;;;;;6244062;23;19953;-74
2023/01/01 14:26:18;;;;;;;;;;;22.50;79.80;;;;;;6245617;22;20070;-73
2023/01/01 14:28:44;;;;;;;;;;;22.60;79.70;;;;;;6245802;22;19908;-74
2023/01/01 14:31:12;;;;;;;;;;;22.60;79.40;;;;;;6245465;22;19911;-74
2023/01/01 14:33:39;;;;;;;;;;;22.60;79.80;;;;;;6245589;22;19908;-74
2023/01/01 14:36:06;;;;;;;;;;;22.60;79.60;;;;;;6245376;22;19903;-73
2023/01/01 14:38:33;;;;;;;;;;;22.60;79.70;;;;;;6245927;22;19927;-73
2023/01/01 14:41:01;;;;;;;;;;;22.60;79.70;;;;;;6245945;22;19950;-73